KMFI/MFI METAR and TAF weather

Enter ICAO airport designator
Station Type Date Time Source
KMFI METAR 2019/02/21 15:54 UTC NOAA

KMFI 211554Z AUTO 28011KT 4SM HZ SCT006 OVC010 M11/M14 A3003 RMK AO2 SNE48 SLP193 P0000 T11061139


Station Type Date Time Source
KMFI Decoded METAR 2019/02/21 15:54 UTC NOAA

MARSHFIELD MUNICIPAL AIRPORT, WI, United States (KMFI) 44-38N 90-11W 379M
Feb 21, 2019 - 10:54 AM EST / 2019.02.21 1554 UTC
Wind: from the W (280 degrees) at 13 MPH (11 KT):0
Visibility: 4 mile(s):0
Sky conditions: overcast
Weather: haze
Precipitation last hour: A trace
Temperature: 12.9 F (-10.6 C)
Windchill: -2 F (-19 C):1
Dew Point: 7.0 F (-13.9 C)
Relative Humidity: 76%
Pressure (altimeter): 30.03 in. Hg (1016 hPa)
ob: KMFI 211554Z AUTO 28011KT 4SM HZ SCT006 OVC010 M11/M14 A3003 RMK AO2 SNE48 SLP193 P0000 T11061139
cycle: 16

Station Type Date Time Source
KMFI TAF UTC NOAA

Error!


Example: see airport list